Current Conditions
Mostly Scattered
Clouds




Pressure
30.04 (inHG) - 1017.32 (mb)
Visibility

10.0 (mimiles) - 16.1 (km)
   Temperature
73  °F
23°C
55  °F
Dewpoint
53  %
 Humidity
   Wind Speed
9  mph
8  kts
14  km/h
4.0  m/s
   Wind Direction
 320°
North West
   Airport Data
MMLP
Location Manuel Márquez de León International 30 mi (48.27 km)
Metar :MMLP 102045Z 32008KT 10SM SCT120 OVC220 23/13 A3004 RMK SLP174 57027 900 8/017
Tue 10th March 13:45 pm
   Raw Metar Info
Raw METAR is the most common format in the world for the transmission of observational weather data. It is highly standardized through the International Civil Aviation Organization (ICAO), which allows it to be understood throughout most of the world.
   API Info
Data Provided by
https://www.checkwx.com/weather/MMLP
   © Info
CSS/SVG/PHP scripts were developed by weather34.com for use in the weather34 template © 2015-2020

Guide Info provided by Metar-Wikipedia